createdAt,value
2023-07-17T00:02:43.930Z,3.60
2023-07-17T00:06:45.857Z,2.30
2023-07-17T00:10:47.533Z,2.90
2023-07-17T00:14:49.403Z,2.30
2023-07-17T00:18:51.366Z,2.50
2023-07-17T00:22:53.380Z,2.30
2023-07-17T00:26:55.249Z,2.20
2023-07-17T00:30:57.116Z,2.70
2023-07-17T00:34:58.912Z,2.30
2023-07-17T00:39:00.643Z,1.90
2023-07-17T00:43:02.526Z,2.70
2023-07-17T00:47:05.869Z,3.00
2023-07-17T00:51:07.882Z,2.00
2023-07-17T00:55:09.967Z,2.40
2023-07-17T00:59:13.276Z,2.30
2023-07-17T01:03:15.252Z,2.00
2023-07-17T01:07:17.413Z,2.90
2023-07-17T01:11:19.592Z,2.10
2023-07-17T01:15:21.371Z,1.80
2023-07-17T01:19:23.242Z,2.50
2023-07-17T01:23:25.344Z,2.40
2023-07-17T01:27:27.065Z,2.20
2023-07-17T01:31:28.828Z,2.90
2023-07-17T01:35:30.598Z,2.30
2023-07-17T01:39:32.568Z,2.30
2023-07-17T01:43:34.563Z,2.40
2023-07-17T01:47:36.351Z,2.90
2023-07-17T01:51:38.226Z,2.20
2023-07-17T01:55:39.953Z,2.30
2023-07-17T01:59:41.778Z,2.50
2023-07-17T02:03:43.516Z,2.40
2023-07-17T02:07:45.300Z,2.80
2023-07-17T02:11:47.003Z,1.60
2023-07-17T02:15:48.642Z,2.20
2023-07-17T02:19:50.211Z,2.40
2023-07-17T02:23:52.217Z,2.50
2023-07-17T02:27:54.318Z,2.10
2023-07-17T02:31:56.143Z,2.10
2023-07-17T02:35:57.762Z,2.60
2023-07-17T02:39:59.499Z,2.60
2023-07-17T02:44:01.387Z,2.60
2023-07-17T02:48:04.532Z,2.70
2023-07-17T02:52:07.783Z,2.30
2023-07-17T02:56:09.443Z,2.80
2023-07-17T03:00:13.161Z,2.80
2023-07-17T03:04:15.313Z,2.30
2023-07-17T03:08:17.089Z,2.60
2023-07-17T03:12:18.809Z,3.00
2023-07-17T03:16:21.251Z,3.70
2023-07-17T03:20:23.131Z,2.80
2023-07-17T03:24:24.921Z,3.60
2023-07-17T03:28:26.810Z,2.40
2023-07-17T03:32:35.602Z,2.80
2023-07-17T03:36:37.526Z,2.10
2023-07-17T03:40:39.467Z,3.60
2023-07-17T03:44:41.171Z,2.30
2023-07-17T03:48:42.893Z,2.80
2023-07-17T03:52:44.845Z,2.80
2023-07-17T03:56:46.962Z,3.10
2023-07-17T04:00:48.994Z,2.60
2023-07-17T04:04:51.263Z,2.50
2023-07-17T04:08:53.013Z,3.80
2023-07-17T04:12:55.019Z,3.10
2023-07-17T04:16:56.993Z,3.30
2023-07-17T04:20:58.977Z,3.20
2023-07-17T04:25:02.682Z,3.10
2023-07-17T04:29:04.571Z,3.20
2023-07-17T04:33:06.611Z,4.80
2023-07-17T04:37:08.644Z,3.40
2023-07-17T04:41:10.801Z,4.40
2023-07-17T04:45:13.382Z,2.80
2023-07-17T04:49:15.156Z,2.40
2023-07-17T04:53:17.313Z,2.80
2023-07-17T04:57:19.369Z,2.50
2023-07-17T05:01:21.872Z,2.70
2023-07-17T05:05:24.472Z,3.20
2023-07-17T05:09:26.848Z,2.50
2023-07-17T05:13:29.782Z,1.70
2023-07-17T05:17:32.214Z,2.50
2023-07-17T05:21:35.065Z,2.10
2023-07-17T05:25:37.702Z,2.30
2023-07-17T05:29:40.174Z,2.20
2023-07-17T05:33:42.642Z,2.30
2023-07-17T05:37:45.340Z,3.10
2023-07-17T05:41:47.909Z,3.40
2023-07-17T05:45:50.376Z,2.80
2023-07-17T05:49:52.627Z,2.60
2023-07-17T05:53:55.373Z,2.50
2023-07-17T05:57:57.785Z,1.60
2023-07-17T06:02:00.392Z,1.50
2023-07-17T06:06:04.343Z,2.90
2023-07-17T06:10:08.418Z,1.90
2023-07-17T06:14:10.886Z,13.20
2023-07-17T06:18:13.402Z,17.30
2023-07-17T06:22:16.559Z,2.70
2023-07-17T06:26:19.178Z,1.90
2023-07-17T06:30:21.967Z,2.10
2023-07-17T06:34:24.435Z,1.90
2023-07-17T06:38:28.052Z,1.70
2023-07-17T06:42:31.881Z,1.90
2023-07-17T06:46:34.664Z,2.80
2023-07-17T06:50:37.427Z,2.20
2023-07-17T06:54:57.001Z,1.90
2023-07-17T06:59:02.489Z,2.20
2023-07-17T07:03:05.237Z,3.30
2023-07-17T07:07:07.848Z,2.30
2023-07-17T07:11:11.002Z,2.70
2023-07-17T07:15:13.540Z,2.70
2023-07-17T07:19:16.275Z,3.00
2023-07-17T07:23:20.030Z,3.20
2023-07-17T07:27:22.410Z,3.40
2023-07-17T07:31:24.953Z,4.20
2023-07-17T07:35:27.623Z,2.70
2023-07-17T07:39:30.248Z,3.20
2023-07-17T07:43:32.489Z,2.40
2023-07-17T07:47:34.812Z,2.70
2023-07-17T07:51:37.374Z,2.30
2023-07-17T07:55:41.031Z,2.80
2023-07-17T07:59:52.552Z,2.10
2023-07-17T08:03:55.134Z,2.00
2023-07-17T08:07:57.418Z,2.10
2023-07-17T08:11:59.893Z,3.10
2023-07-17T08:16:02.163Z,2.30
2023-07-17T08:20:05.715Z,3.10
2023-07-17T08:24:08.116Z,2.20
2023-07-17T08:28:10.677Z,2.80
2023-07-17T08:32:12.969Z,2.80
2023-07-17T08:36:15.247Z,2.70
2023-07-17T08:40:17.749Z,3.50
2023-07-17T08:44:21.221Z,2.60
2023-07-17T08:48:24.779Z,2.20
2023-07-17T08:52:29.216Z,2.90
2023-07-17T08:56:32.396Z,3.30
2023-07-17T09:00:35.029Z,2.40
2023-07-17T09:04:37.566Z,3.60
2023-07-17T09:08:40.239Z,2.90
2023-07-17T09:12:43.955Z,3.70
2023-07-17T09:16:47.691Z,3.30
2023-07-17T09:21:05.378Z,3.40
2023-07-17T09:25:09.072Z,4.90
2023-07-17T09:29:14.819Z,2.90
2023-07-17T09:33:25.607Z,3.10
2023-07-17T09:37:32.322Z,2.60
2023-07-17T09:41:35.590Z,2.90
2023-07-17T09:45:38.366Z,2.60
2023-07-17T09:49:41.695Z,2.70
2023-07-17T09:53:46.304Z,3.20
2023-07-17T09:57:53.675Z,3.50
2023-07-17T10:01:58.982Z,3.30
2023-07-17T10:06:02.761Z,3.80
2023-07-17T10:10:07.866Z,2.60
2023-07-17T10:14:12.947Z,2.90
2023-07-17T10:18:15.724Z,2.90
2023-07-17T10:22:18.719Z,3.80
2023-07-17T10:26:22.440Z,3.20
2023-07-17T10:30:26.086Z,3.40
2023-07-17T10:34:47.757Z,2.50
2023-07-17T10:38:54.005Z,3.40
2023-07-17T10:43:11.729Z,3.50
2023-07-17T10:47:14.052Z,3.20
2023-07-17T10:51:16.496Z,2.70
2023-07-17T10:55:19.390Z,3.50
2023-07-17T10:59:23.795Z,3.30
2023-07-17T11:03:27.438Z,3.40
2023-07-17T11:07:36.955Z,2.80
2023-07-17T11:11:39.885Z,4.40
2023-07-17T11:15:44.262Z,3.90
2023-07-17T11:19:47.086Z,3.30
2023-07-17T11:23:54.589Z,2.20
2023-07-17T11:28:00.061Z,2.90
2023-07-17T11:32:02.717Z,2.70
2023-07-17T11:36:16.659Z,3.40
2023-07-17T11:40:19.201Z,2.70
2023-07-17T11:44:27.319Z,3.10
2023-07-17T11:48:33.684Z,2.60
2023-07-17T11:52:35.740Z,2.80
2023-07-17T11:56:43.422Z,3.20
2023-07-17T12:00:50.763Z,3.70
2023-07-17T12:04:53.183Z,3.20
2023-07-17T12:08:55.644Z,2.80
2023-07-17T12:12:58.374Z,3.60
2023-07-17T12:17:01.142Z,3.80
2023-07-17T12:21:03.652Z,3.30
2023-07-17T12:25:06.512Z,3.80
2023-07-17T12:29:08.858Z,3.20
2023-07-17T12:33:11.065Z,3.00
2023-07-17T12:37:13.383Z,2.90
2023-07-17T12:41:16.129Z,2.90
2023-07-17T12:45:18.780Z,2.90
2023-07-17T12:49:21.238Z,2.90
2023-07-17T12:53:23.515Z,4.60
2023-07-17T12:57:28.727Z,4.00
2023-07-17T13:01:32.078Z,3.80
2023-07-17T13:05:34.877Z,3.70
2023-07-17T13:09:37.110Z,3.40
2023-07-17T13:13:39.434Z,4.00
2023-07-17T13:17:45.893Z,3.70
2023-07-17T13:21:49.099Z,2.90
2023-07-17T13:25:51.637Z,4.20
2023-07-17T13:29:55.294Z,3.70
2023-07-17T13:33:57.297Z,2.90
2023-07-17T13:37:59.461Z,3.10
2023-07-17T13:42:01.765Z,4.20
2023-07-17T13:46:03.870Z,3.50
2023-07-17T13:50:07.043Z,3.40
2023-07-17T13:54:10.416Z,2.90
2023-07-17T13:58:16.218Z,3.10
2023-07-17T14:02:18.708Z,4.50
2023-07-17T14:06:21.428Z,3.20
2023-07-17T14:10:24.984Z,4.00
2023-07-17T14:14:29.815Z,4.10
2023-07-17T14:18:34.191Z,3.20
2023-07-17T14:22:40.135Z,3.90
2023-07-17T14:26:42.457Z,3.10
2023-07-17T14:30:45.145Z,3.90
2023-07-17T14:34:47.377Z,3.70
2023-07-17T14:38:49.616Z,3.20
2023-07-17T14:42:53.039Z,3.80
2023-07-17T14:46:55.561Z,3.50
2023-07-17T14:50:58.745Z,3.20
2023-07-17T14:55:00.814Z,3.20
2023-07-17T14:59:03.160Z,3.00
2023-07-17T15:03:05.511Z,3.20
2023-07-17T15:07:09.113Z,2.80
2023-07-17T15:11:12.487Z,4.90
2023-07-17T15:15:14.915Z,2.90
2023-07-17T15:19:17.510Z,4.10
2023-07-17T15:23:19.688Z,3.80
2023-07-17T15:27:21.720Z,3.00
2023-07-17T15:31:23.733Z,3.10
2023-07-17T15:35:26.044Z,3.20
2023-07-17T15:39:28.184Z,4.10
2023-07-17T15:43:30.506Z,3.00
2023-07-17T15:47:32.733Z,3.20
2023-07-17T15:51:35.180Z,3.80
2023-07-17T15:55:38.002Z,2.80
2023-07-17T15:59:40.114Z,4.90
2023-07-17T16:03:42.425Z,4.50
2023-07-17T16:07:44.622Z,2.90
2023-07-17T16:11:46.743Z,4.10
2023-07-17T16:15:49.305Z,3.30
2023-07-17T16:19:51.361Z,3.50
2023-07-17T16:23:53.811Z,4.20
2023-07-17T16:27:56.980Z,4.20
2023-07-17T16:31:59.504Z,3.00
2023-07-17T16:36:01.690Z,2.40
2023-07-17T16:40:06.864Z,3.10
2023-07-17T16:44:09.284Z,3.10
2023-07-17T16:48:14.591Z,3.00
2023-07-17T16:52:16.929Z,2.90
2023-07-17T16:56:19.844Z,3.00
2023-07-17T17:00:24.298Z,3.90
2023-07-17T17:04:26.509Z,2.70
2023-07-17T17:08:28.710Z,2.90
2023-07-17T17:12:31.067Z,3.10
2023-07-17T17:16:33.395Z,3.30
2023-07-17T17:20:35.476Z,2.80
2023-07-17T17:24:37.722Z,3.00
2023-07-17T17:28:39.935Z,3.60
2023-07-17T17:32:42.928Z,3.40
2023-07-17T17:36:45.021Z,2.80
2023-07-17T17:40:47.852Z,3.10
2023-07-17T17:44:49.856Z,2.90
2023-07-17T17:48:52.294Z,3.30
2023-07-17T17:52:54.628Z,3.90
2023-07-17T17:56:58.703Z,3.50
2023-07-17T18:01:01.241Z,3.80
2023-07-17T18:05:03.632Z,3.30
2023-07-17T18:09:05.802Z,4.10
2023-07-17T18:13:07.950Z,4.50
2023-07-17T18:17:10.760Z,6.20
2023-07-17T18:21:13.006Z,5.10
2023-07-17T18:25:14.942Z,5.80
2023-07-17T18:29:16.982Z,4.20
2023-07-17T18:33:19.084Z,4.10
2023-07-17T18:37:21.115Z,5.60
2023-07-17T18:41:23.117Z,16.10
2023-07-17T18:45:25.989Z,30.90
2023-07-17T18:49:28.275Z,20.60
2023-07-17T18:53:30.836Z,13.20
2023-07-17T18:57:32.951Z,12.50
2023-07-17T19:01:35.363Z,7.00
2023-07-17T19:05:37.738Z,6.20
2023-07-17T19:09:39.755Z,7.30
2023-07-17T19:13:41.741Z,5.60
2023-07-17T19:17:44.767Z,11.10
2023-07-17T19:21:46.924Z,8.60
2023-07-17T19:25:49.046Z,5.00
2023-07-17T19:29:51.381Z,5.10
2023-07-17T19:33:54.629Z,4.50
2023-07-17T19:37:56.584Z,4.40
2023-07-17T19:41:58.865Z,4.40
2023-07-17T19:46:00.791Z,3.60
2023-07-17T19:50:02.654Z,4.10
2023-07-17T19:54:04.772Z,4.70
2023-07-17T19:58:08.115Z,3.20
2023-07-17T20:02:10.608Z,3.90
2023-07-17T20:06:14.024Z,5.50
2023-07-17T20:10:16.832Z,3.70
2023-07-17T20:14:18.838Z,4.00
2023-07-17T20:18:21.192Z,5.40
2023-07-17T20:22:23.114Z,4.80
2023-07-17T20:26:25.258Z,11.80
2023-07-17T20:30:27.484Z,9.00
2023-07-17T20:34:29.538Z,8.40
2023-07-17T20:38:31.563Z,6.20
2023-07-17T20:42:48.938Z,4.40
2023-07-17T20:46:51.328Z,5.50
2023-07-17T20:51:12.355Z,4.70
2023-07-17T20:55:19.762Z,4.40
2023-07-17T20:59:21.751Z,5.10
2023-07-17T21:03:23.738Z,5.10
2023-07-17T21:07:25.919Z,5.30
2023-07-17T21:11:29.027Z,5.40
2023-07-17T21:15:31.103Z,4.30
2023-07-17T21:19:32.973Z,4.30
2023-07-17T21:23:34.922Z,5.20
2023-07-17T21:27:36.672Z,4.80
2023-07-17T21:31:38.568Z,6.30
2023-07-17T21:35:40.788Z,5.00
2023-07-17T21:39:42.692Z,6.80
2023-07-17T21:43:44.374Z,5.00
2023-07-17T21:47:46.551Z,6.50
2023-07-17T21:51:48.302Z,6.50
2023-07-17T21:55:50.089Z,5.30
2023-07-17T21:59:53.642Z,6.60
2023-07-17T22:03:56.722Z,5.40
2023-07-17T22:07:58.512Z,6.20
2023-07-17T22:12:00.297Z,5.50
2023-07-17T22:16:03.437Z,5.00
2023-07-17T22:20:07.369Z,4.20
2023-07-17T22:24:09.564Z,4.30
2023-07-17T22:28:11.381Z,5.30
2023-07-17T22:32:14.489Z,5.20
2023-07-17T22:36:16.170Z,5.70
2023-07-17T22:40:18.156Z,3.50
2023-07-17T22:44:19.967Z,3.50
2023-07-17T22:48:21.826Z,2.60
2023-07-17T22:52:23.921Z,3.10
2023-07-17T22:56:26.033Z,3.10
2023-07-17T23:00:28.010Z,3.80
2023-07-17T23:04:30.763Z,3.10
2023-07-17T23:08:33.560Z,2.60
2023-07-17T23:12:39.361Z,2.70
2023-07-17T23:16:41.426Z,2.50
2023-07-17T23:20:43.387Z,3.40
2023-07-17T23:24:45.604Z,2.90
2023-07-17T23:28:48.516Z,2.50
2023-07-17T23:32:50.514Z,2.40
2023-07-17T23:36:52.366Z,3.00
2023-07-17T23:40:54.182Z,2.80
2023-07-17T23:44:56.851Z,2.30
2023-07-17T23:49:01.836Z,2.20
2023-07-17T23:53:03.915Z,1.70
2023-07-17T23:57:07.421Z,2.00
